createdAt,value
2022-11-06T00:01:13.247Z,8.06
2022-11-06T00:03:58.298Z,8.05
2022-11-06T00:06:43.350Z,8.04
2022-11-06T00:09:28.076Z,8.02
2022-11-06T00:12:12.791Z,8.00
2022-11-06T00:14:57.584Z,8.00
2022-11-06T00:17:42.607Z,7.99
2022-11-06T00:20:27.660Z,7.99
2022-11-06T00:23:12.560Z,7.95
2022-11-06T00:25:57.434Z,7.93
2022-11-06T00:28:43.593Z,7.93
2022-11-06T00:31:30.974Z,7.94
2022-11-06T00:34:16.082Z,7.92
2022-11-06T00:37:01.688Z,7.92
2022-11-06T00:39:46.767Z,7.90
2022-11-06T00:42:32.116Z,7.89
2022-11-06T00:45:16.921Z,7.92
2022-11-06T00:48:02.381Z,7.89
2022-11-06T00:50:47.172Z,7.91
2022-11-06T00:53:32.199Z,7.90
2022-11-06T00:56:19.045Z,7.94
2022-11-06T00:59:06.605Z,7.94
2022-11-06T01:01:52.190Z,7.96
2022-11-06T01:04:37.438Z,7.99
2022-11-06T01:07:22.649Z,7.99
2022-11-06T01:10:08.343Z,7.97
2022-11-06T01:12:53.520Z,7.98
2022-11-06T01:15:38.630Z,7.98
2022-11-06T01:18:23.507Z,7.95
2022-11-06T01:21:12.668Z,7.94
2022-11-06T01:24:00.317Z,7.95
2022-11-06T01:27:05.281Z,7.92
2022-11-06T01:29:50.795Z,7.94
2022-11-06T01:32:35.485Z,7.95
2022-11-06T01:35:20.353Z,7.93
2022-11-06T01:38:05.113Z,7.90
2022-11-06T01:40:50.306Z,7.92
2022-11-06T01:43:47.582Z,7.93
2022-11-06T01:46:35.133Z,7.89
2022-11-06T01:49:20.560Z,7.89
2022-11-06T01:52:09.044Z,7.89
2022-11-06T01:54:58.552Z,7.88
2022-11-06T01:57:44.012Z,7.85
2022-11-06T02:00:29.326Z,7.81
2022-11-06T02:03:14.701Z,7.78
2022-11-06T02:06:00.192Z,7.78
2022-11-06T02:08:45.885Z,7.75
2022-11-06T02:11:31.007Z,7.73
2022-11-06T02:14:20.716Z,7.75
2022-11-06T02:17:14.252Z,7.72
2022-11-06T02:20:18.006Z,7.71
2022-11-06T02:23:37.233Z,7.71
2022-11-06T02:26:50.121Z,7.74
2022-11-06T02:29:45.183Z,7.78
2022-11-06T02:32:41.423Z,7.78
2022-11-06T02:35:29.143Z,7.73
2022-11-06T02:38:20.056Z,7.74
2022-11-06T02:41:09.501Z,7.71
2022-11-06T02:43:58.023Z,7.69
2022-11-06T02:46:56.718Z,7.71
2022-11-06T02:50:14.888Z,7.66
2022-11-06T02:53:06.818Z,7.67
2022-11-06T02:55:57.656Z,7.63
2022-11-06T02:58:49.302Z,7.68
2022-11-06T03:01:39.858Z,7.69
2022-11-06T03:04:32.502Z,7.66
2022-11-06T03:07:32.636Z,7.64
2022-11-06T03:10:18.622Z,7.64
2022-11-06T03:13:18.360Z,7.62
2022-11-06T03:16:11.247Z,7.59
2022-11-06T03:19:02.611Z,7.57
2022-11-06T03:22:23.359Z,7.54
2022-11-06T03:25:21.220Z,7.51
2022-11-06T03:28:48.264Z,7.53
2022-11-06T03:31:38.366Z,7.43
2022-11-06T03:34:29.710Z,7.41
2022-11-06T03:37:24.505Z,7.43
2022-11-06T03:40:14.396Z,7.43
2022-11-06T03:43:03.856Z,7.36
2022-11-06T03:45:51.803Z,7.35
2022-11-06T03:48:49.204Z,7.32
2022-11-06T03:51:44.150Z,7.33
2022-11-06T03:54:34.306Z,7.36
2022-11-06T03:57:30.723Z,7.38
2022-11-06T04:00:16.182Z,7.35
2022-11-06T04:03:07.581Z,7.35
2022-11-06T04:06:00.638Z,7.38
2022-11-06T04:08:48.595Z,7.39
2022-11-06T04:11:36.758Z,7.41
2022-11-06T04:14:26.895Z,7.42
2022-11-06T04:17:14.048Z,7.46
2022-11-06T04:20:03.359Z,7.49
2022-11-06T04:22:59.548Z,7.51
2022-11-06T04:25:59.880Z,7.49
2022-11-06T04:29:15.733Z,7.53
2022-11-06T04:32:11.897Z,7.52
2022-11-06T04:35:24.943Z,7.55
2022-11-06T04:38:20.021Z,7.50
2022-11-06T04:41:08.314Z,7.48
2022-11-06T04:44:00.264Z,7.48
2022-11-06T04:46:50.093Z,7.42
2022-11-06T04:49:38.917Z,7.42
2022-11-06T04:52:27.832Z,7.44
2022-11-06T04:55:13.342Z,7.40
2022-11-06T04:57:58.344Z,7.38
2022-11-06T05:00:47.034Z,7.41
2022-11-06T05:03:31.947Z,7.38
2022-11-06T05:06:17.173Z,7.36
2022-11-06T05:09:02.208Z,7.31
2022-11-06T05:11:47.022Z,7.26
2022-11-06T05:14:31.846Z,7.27
2022-11-06T05:17:16.683Z,7.24
2022-11-06T05:20:02.157Z,7.21
2022-11-06T05:22:47.229Z,7.23
2022-11-06T05:25:36.812Z,7.21
2022-11-06T05:28:21.652Z,7.19
2022-11-06T05:31:06.723Z,7.21
2022-11-06T05:33:51.728Z,7.25
2022-11-06T05:36:36.608Z,7.27
2022-11-06T05:39:21.561Z,7.27
2022-11-06T05:42:06.751Z,7.28
2022-11-06T05:44:52.285Z,7.27
2022-11-06T05:47:40.394Z,7.26
2022-11-06T05:50:25.629Z,7.29
2022-11-06T05:53:11.092Z,7.30
2022-11-06T05:55:55.879Z,7.30
2022-11-06T05:58:40.658Z,7.27
2022-11-06T06:01:25.988Z,7.22
2022-11-06T06:04:11.313Z,7.18
2022-11-06T06:06:56.463Z,7.18
2022-11-06T06:09:41.528Z,7.16
2022-11-06T06:12:26.840Z,7.13
2022-11-06T06:15:11.822Z,7.11
2022-11-06T06:17:57.920Z,7.10
2022-11-06T06:20:43.104Z,7.13
2022-11-06T06:23:28.577Z,7.15
2022-11-06T06:26:13.617Z,7.14
2022-11-06T06:28:58.937Z,7.19
2022-11-06T06:31:43.790Z,7.19
2022-11-06T06:34:28.609Z,7.23
2022-11-06T06:37:17.615Z,7.21
2022-11-06T06:40:06.036Z,7.24
2022-11-06T06:42:50.812Z,7.27
2022-11-06T06:45:35.657Z,7.27
2022-11-06T06:48:20.570Z,7.28
2022-11-06T06:51:05.673Z,7.33
2022-11-06T06:53:51.201Z,7.36
2022-11-06T06:56:36.251Z,7.35
2022-11-06T06:59:21.260Z,7.35
2022-11-06T07:02:06.342Z,7.38
2022-11-06T07:04:51.766Z,7.40
2022-11-06T07:07:36.739Z,7.45
2022-11-06T07:10:21.542Z,7.50
2022-11-06T07:13:06.961Z,7.50
2022-11-06T07:15:52.282Z,7.55
2022-11-06T07:18:39.464Z,7.59
2022-11-06T07:21:24.765Z,7.55
2022-11-06T07:24:09.743Z,7.54
2022-11-06T07:26:54.825Z,7.50
2022-11-06T07:29:40.155Z,7.55
2022-11-06T07:32:25.046Z,7.61
2022-11-06T07:35:09.998Z,7.64
2022-11-06T07:37:55.428Z,7.67
2022-11-06T07:40:40.592Z,7.72
2022-11-06T07:43:25.607Z,7.77
2022-11-06T07:46:12.843Z,7.84
2022-11-06T07:48:57.857Z,7.88
2022-11-06T07:51:43.787Z,7.96
2022-11-06T07:54:28.779Z,8.02
2022-11-06T07:57:14.300Z,8.11
2022-11-06T07:59:59.252Z,8.18
2022-11-06T08:02:44.122Z,8.29
2022-11-06T08:05:29.277Z,8.30
2022-11-06T08:08:14.800Z,8.32
2022-11-06T08:11:05.116Z,8.40
2022-11-06T08:13:49.927Z,8.44
2022-11-06T08:16:35.207Z,8.52
2022-11-06T08:19:20.187Z,8.57
2022-11-06T08:22:05.699Z,8.67
2022-11-06T08:24:50.922Z,8.68
2022-11-06T08:27:35.856Z,8.73
2022-11-06T08:30:21.697Z,8.80
2022-11-06T08:33:08.170Z,8.92
2022-11-06T08:35:53.190Z,8.88
2022-11-06T08:38:38.219Z,8.95
2022-11-06T08:41:23.393Z,9.03
2022-11-06T08:44:08.565Z,9.07
2022-11-06T08:46:53.635Z,9.11
2022-11-06T08:49:38.561Z,9.15
2022-11-06T08:52:23.725Z,9.27
2022-11-06T08:55:09.124Z,9.30
2022-11-06T08:57:54.923Z,9.38
2022-11-06T09:00:40.247Z,9.47
2022-11-06T09:03:25.418Z,9.50
2022-11-06T09:06:10.813Z,9.56
2022-11-06T09:08:56.324Z,9.65
2022-11-06T09:11:41.660Z,9.62
2022-11-06T09:14:27.726Z,9.57
2022-11-06T09:17:14.053Z,9.72
2022-11-06T09:20:05.568Z,9.73
2022-11-06T09:22:51.773Z,9.78
2022-11-06T09:25:37.375Z,9.65
2022-11-06T09:28:24.294Z,9.63
2022-11-06T09:31:09.944Z,9.72
2022-11-06T09:33:55.163Z,9.78
2022-11-06T09:36:40.647Z,9.97
2022-11-06T09:39:25.608Z,10.07
2022-11-06T09:42:36.045Z,10.25
2022-11-06T09:45:24.613Z,10.40
2022-11-06T09:48:09.446Z,10.44
2022-11-06T09:51:19.907Z,10.54
2022-11-06T09:54:13.174Z,10.79
2022-11-06T09:57:05.224Z,10.76
2022-11-06T09:59:51.349Z,10.48
2022-11-06T10:02:48.234Z,10.42
2022-11-06T10:05:36.350Z,10.65
2022-11-06T10:08:21.523Z,11.22
2022-11-06T10:11:16.043Z,11.31
2022-11-06T10:14:15.796Z,11.39
2022-11-06T10:17:05.192Z,11.47
2022-11-06T10:20:01.647Z,11.33
2022-11-06T10:23:02.010Z,11.50
2022-11-06T10:26:11.861Z,11.41
2022-11-06T10:29:31.291Z,11.20
2022-11-06T10:32:43.535Z,11.28
2022-11-06T10:35:51.714Z,11.39
2022-11-06T10:38:40.594Z,11.83
2022-11-06T10:41:33.729Z,11.74
2022-11-06T10:44:21.895Z,11.81
2022-11-06T10:47:18.865Z,11.98
2022-11-06T10:50:06.286Z,11.82
2022-11-06T10:53:00.694Z,11.63
2022-11-06T10:56:21.370Z,11.69
2022-11-06T10:59:07.407Z,11.58
2022-11-06T11:01:52.439Z,11.59
2022-11-06T11:04:37.752Z,11.55
2022-11-06T11:07:32.280Z,11.32
2022-11-06T11:10:23.617Z,11.38
2022-11-06T11:13:20.467Z,11.48
2022-11-06T11:16:14.723Z,11.51
2022-11-06T11:19:23.336Z,11.61
2022-11-06T11:22:21.673Z,11.49
2022-11-06T11:25:08.758Z,11.45
2022-11-06T11:27:54.778Z,11.52
2022-11-06T11:30:39.596Z,11.50
2022-11-06T11:33:25.681Z,11.49
2022-11-06T11:36:10.938Z,11.42
2022-11-06T11:38:56.509Z,11.47
2022-11-06T11:41:41.591Z,11.46
2022-11-06T11:44:27.128Z,11.61
2022-11-06T11:47:24.048Z,11.61
2022-11-06T11:50:20.012Z,11.76
2022-11-06T11:53:11.733Z,12.15
2022-11-06T11:55:56.693Z,12.44
2022-11-06T11:58:50.258Z,12.59
2022-11-06T12:01:45.466Z,12.45
2022-11-06T12:04:36.925Z,12.18
2022-11-06T12:07:29.448Z,12.15
2022-11-06T12:10:33.601Z,12.17
2022-11-06T12:13:24.605Z,12.18
2022-11-06T12:16:20.035Z,12.12
2022-11-06T12:19:07.733Z,12.12
2022-11-06T12:21:58.461Z,12.41
2022-11-06T12:24:54.124Z,12.34
2022-11-06T12:27:44.036Z,12.25
2022-11-06T12:30:30.901Z,12.26
2022-11-06T12:33:45.466Z,12.20
2022-11-06T12:36:33.358Z,12.14
2022-11-06T12:39:27.316Z,12.18
2022-11-06T12:42:14.362Z,12.21
2022-11-06T12:45:00.510Z,12.16
2022-11-06T12:47:58.596Z,12.15
2022-11-06T12:51:03.261Z,12.17
2022-11-06T12:54:25.969Z,12.18
2022-11-06T12:57:44.626Z,12.24
2022-11-06T13:00:46.189Z,12.33
2022-11-06T13:03:37.553Z,12.26
2022-11-06T13:06:49.519Z,12.33
2022-11-06T13:09:55.115Z,12.34
2022-11-06T13:12:46.980Z,12.36
2022-11-06T13:16:10.022Z,12.82
2022-11-06T13:19:24.197Z,13.00
2022-11-06T13:22:30.850Z,13.55
2022-11-06T13:25:22.509Z,13.89
2022-11-06T13:28:16.809Z,13.84
2022-11-06T13:31:06.345Z,12.94
2022-11-06T13:33:55.940Z,12.16
2022-11-06T13:36:41.412Z,12.11
2022-11-06T13:39:41.090Z,11.96
2022-11-06T13:42:31.233Z,11.90
2022-11-06T13:45:17.421Z,11.64
2022-11-06T13:48:24.000Z,11.54
2022-11-06T13:51:43.276Z,11.54
2022-11-06T13:54:48.706Z,11.63
2022-11-06T13:57:44.094Z,11.74
2022-11-06T14:00:37.329Z,11.79
2022-11-06T14:03:56.367Z,11.81
2022-11-06T14:06:42.267Z,11.70
2022-11-06T14:09:31.710Z,11.56
2022-11-06T14:12:20.654Z,11.51
2022-11-06T14:15:21.317Z,11.48
2022-11-06T14:18:06.688Z,11.42
2022-11-06T14:21:35.189Z,11.45
2022-11-06T14:24:32.841Z,11.46
2022-11-06T14:27:21.324Z,11.42
2022-11-06T14:30:50.316Z,11.42
2022-11-06T14:33:41.165Z,11.54
2022-11-06T14:36:52.785Z,11.49
2022-11-06T14:40:01.079Z,11.43
2022-11-06T14:42:58.760Z,11.38
2022-11-06T14:46:01.667Z,11.34
2022-11-06T14:48:49.942Z,11.37
2022-11-06T14:51:35.430Z,11.28
2022-11-06T14:54:23.779Z,11.27
2022-11-06T14:57:15.129Z,11.19
2022-11-06T15:00:01.010Z,11.06
2022-11-06T15:02:48.305Z,11.03
2022-11-06T15:05:36.332Z,10.96
2022-11-06T15:08:56.585Z,10.95
2022-11-06T15:11:59.511Z,10.91
2022-11-06T15:14:47.405Z,10.86
2022-11-06T15:17:36.269Z,10.80
2022-11-06T15:20:27.169Z,10.76
2022-11-06T15:23:26.848Z,10.75
2022-11-06T15:26:23.748Z,10.73
2022-11-06T15:29:25.321Z,10.67
2022-11-06T15:32:15.571Z,10.67
2022-11-06T15:35:08.764Z,10.66
2022-11-06T15:38:04.821Z,10.62
2022-11-06T15:40:52.482Z,10.60
2022-11-06T15:43:37.498Z,10.57
2022-11-06T15:46:29.312Z,10.52
2022-11-06T15:49:18.422Z,10.52
2022-11-06T15:52:04.041Z,10.43
2022-11-06T15:54:56.633Z,10.36
2022-11-06T15:57:42.141Z,10.36
2022-11-06T16:00:30.398Z,10.31
2022-11-06T16:03:18.620Z,10.31
2022-11-06T16:06:04.702Z,10.28
2022-11-06T16:08:51.105Z,10.29
2022-11-06T16:11:36.490Z,10.26
2022-11-06T16:14:21.783Z,10.23
2022-11-06T16:17:16.066Z,10.19
2022-11-06T16:20:13.625Z,10.17
2022-11-06T16:23:03.917Z,10.20
2022-11-06T16:25:49.141Z,10.20
2022-11-06T16:28:35.309Z,10.17
2022-11-06T16:31:25.255Z,10.15
2022-11-06T16:34:41.333Z,10.11
2022-11-06T16:37:26.412Z,10.08
2022-11-06T16:40:49.160Z,10.07
2022-11-06T16:43:34.040Z,10.00
2022-11-06T16:46:19.238Z,9.99
2022-11-06T16:49:34.670Z,9.88
2022-11-06T16:52:36.806Z,9.83
2022-11-06T16:55:24.818Z,9.81
2022-11-06T16:58:16.041Z,9.84
2022-11-06T17:01:04.682Z,9.82
2022-11-06T17:04:01.118Z,9.81
2022-11-06T17:06:46.115Z,9.79
2022-11-06T17:09:35.547Z,9.81
2022-11-06T17:12:20.817Z,9.82
2022-11-06T17:15:09.779Z,9.82
2022-11-06T17:17:54.529Z,9.80
2022-11-06T17:20:53.207Z,9.85
2022-11-06T17:23:38.639Z,9.79
2022-11-06T17:26:28.160Z,9.78
2022-11-06T17:29:16.949Z,9.79
2022-11-06T17:32:05.229Z,9.81
2022-11-06T17:34:50.185Z,9.73
2022-11-06T17:37:38.859Z,9.74
2022-11-06T17:40:23.875Z,9.74
2022-11-06T17:43:15.123Z,9.74
2022-11-06T17:46:02.659Z,9.76
2022-11-06T17:48:47.897Z,9.70
2022-11-06T17:51:33.214Z,9.56
2022-11-06T17:54:21.113Z,9.48
2022-11-06T17:57:08.398Z,9.32
2022-11-06T17:59:53.483Z,9.23
2022-11-06T18:02:59.572Z,9.19
2022-11-06T18:05:44.217Z,9.22
2022-11-06T18:08:29.067Z,9.25
2022-11-06T18:11:14.138Z,9.34
2022-11-06T18:13:59.790Z,9.20
2022-11-06T18:16:45.051Z,9.22
2022-11-06T18:19:32.386Z,9.33
2022-11-06T18:22:21.520Z,9.38
2022-11-06T18:25:07.173Z,9.32
2022-11-06T18:27:52.292Z,9.38
2022-11-06T18:30:38.536Z,9.43
2022-11-06T18:33:24.333Z,9.50
2022-11-06T18:36:11.187Z,9.54
2022-11-06T18:38:56.653Z,9.56
2022-11-06T18:41:42.648Z,9.61
2022-11-06T18:44:27.638Z,9.70
2022-11-06T18:47:13.645Z,9.75
2022-11-06T18:49:59.705Z,9.74
2022-11-06T18:52:57.595Z,9.78
2022-11-06T18:55:45.439Z,9.78
2022-11-06T18:58:31.269Z,9.80
2022-11-06T19:01:18.110Z,9.83
2022-11-06T19:04:04.829Z,9.78
2022-11-06T19:06:50.077Z,9.75
2022-11-06T19:09:35.633Z,9.71
2022-11-06T19:12:20.827Z,9.68
2022-11-06T19:15:08.155Z,9.60
2022-11-06T19:17:54.737Z,9.53
2022-11-06T19:20:41.453Z,9.57
2022-11-06T19:23:26.613Z,9.54
2022-11-06T19:26:30.756Z,9.58
2022-11-06T19:29:16.577Z,9.54
2022-11-06T19:32:02.399Z,9.62
2022-11-06T19:34:47.737Z,9.68
2022-11-06T19:37:32.968Z,9.69
2022-11-06T19:40:19.351Z,9.76
2022-11-06T19:43:05.005Z,9.75
2022-11-06T19:45:50.654Z,9.80
2022-11-06T19:48:36.198Z,9.81
2022-11-06T19:51:21.322Z,9.85
2022-11-06T19:54:07.250Z,9.87
2022-11-06T19:57:29.415Z,9.85
2022-11-06T19:59:57.787Z,9.88
2022-11-06T20:02:43.239Z,9.88
2022-11-06T20:05:29.436Z,9.86
2022-11-06T20:08:15.407Z,9.85
2022-11-06T20:11:09.824Z,9.84
2022-11-06T20:13:54.908Z,9.84
2022-11-06T20:16:40.588Z,9.86
2022-11-06T20:19:25.875Z,9.86
2022-11-06T20:22:10.796Z,9.90
2022-11-06T20:24:55.777Z,9.90
2022-11-06T20:27:41.486Z,9.87
2022-11-06T20:30:27.187Z,9.84
2022-11-06T20:33:13.061Z,9.85
2022-11-06T20:35:58.717Z,9.91
2022-11-06T20:38:43.500Z,9.89
2022-11-06T20:41:29.326Z,9.87
2022-11-06T20:44:14.781Z,9.86
2022-11-06T20:47:00.131Z,9.93
2022-11-06T20:49:45.065Z,9.94
2022-11-06T20:52:30.616Z,9.93
2022-11-06T20:55:15.955Z,9.95
2022-11-06T20:58:01.261Z,10.02
2022-11-06T21:00:46.667Z,10.04
2022-11-06T21:03:32.319Z,10.07
2022-11-06T21:06:19.838Z,10.08
2022-11-06T21:09:05.809Z,9.99
2022-11-06T21:11:51.365Z,9.93
2022-11-06T21:14:36.463Z,9.94
2022-11-06T21:17:21.731Z,9.96
2022-11-06T21:20:07.064Z,10.02
2022-11-06T21:22:52.025Z,10.01
2022-11-06T21:25:42.523Z,10.08
2022-11-06T21:28:30.129Z,10.12
2022-11-06T21:31:18.337Z,10.18
2022-11-06T21:34:04.285Z,10.18
2022-11-06T21:36:49.388Z,10.16
2022-11-06T21:39:36.436Z,10.14
2022-11-06T21:42:22.082Z,10.16
2022-11-06T21:45:09.784Z,10.18
2022-11-06T21:47:57.244Z,10.17
2022-11-06T21:50:42.123Z,10.18
2022-11-06T21:53:26.912Z,10.18
2022-11-06T21:56:13.563Z,10.20
2022-11-06T21:59:01.919Z,10.21
2022-11-06T22:01:47.011Z,10.16
2022-11-06T22:04:32.364Z,10.12
2022-11-06T22:07:17.242Z,10.18
2022-11-06T22:10:02.321Z,10.18
2022-11-06T22:12:47.570Z,10.21
2022-11-06T22:15:32.433Z,10.11
2022-11-06T22:18:18.494Z,10.14
2022-11-06T22:21:12.683Z,10.12
2022-11-06T22:23:58.175Z,10.14
2022-11-06T22:26:43.007Z,10.17
2022-11-06T22:29:27.926Z,10.22
2022-11-06T22:32:13.169Z,10.22
2022-11-06T22:35:01.064Z,10.21
2022-11-06T22:37:45.913Z,10.25
2022-11-06T22:40:30.730Z,10.26
2022-11-06T22:43:15.910Z,10.35
2022-11-06T22:46:07.161Z,10.35
2022-11-06T22:48:52.583Z,10.35
2022-11-06T22:51:43.752Z,10.35
2022-11-06T22:54:28.674Z,10.39
2022-11-06T22:57:20.007Z,10.44
2022-11-06T23:00:05.971Z,10.37
2022-11-06T23:02:50.855Z,10.43
2022-11-06T23:05:38.855Z,10.46
2022-11-06T23:08:26.204Z,10.46
2022-11-06T23:11:18.298Z,10.44
2022-11-06T23:14:08.347Z,10.44
2022-11-06T23:16:54.115Z,10.45
2022-11-06T23:19:39.051Z,10.47
2022-11-06T23:22:23.904Z,10.46
2022-11-06T23:25:10.126Z,10.54
2022-11-06T23:27:55.912Z,10.55
2022-11-06T23:30:40.994Z,10.58
2022-11-06T23:33:25.705Z,10.59
2022-11-06T23:36:14.189Z,10.56
2022-11-06T23:38:59.215Z,10.53
2022-11-06T23:41:44.142Z,10.50
2022-11-06T23:44:29.546Z,10.54
2022-11-06T23:47:14.886Z,10.45
2022-11-06T23:50:00.095Z,10.45
2022-11-06T23:52:45.296Z,10.44
2022-11-06T23:55:30.620Z,10.50
2022-11-06T23:58:15.649Z,10.49
